• Join FlightAware (Why Join?)
  • Login
  • US Flag 
Rudolph Flight #1: Arrived! 
07:20PM EST


 

Airport Tracker/Info


-or-


 

Live Flight TrackerFlight Track Log ✈ SWA3383 ✈ 09-Aug-2013 ✈ KDEN - KBOI

Flight Track Log - Related Links

Times and Time Zones

All times are in EDT time to prevent confusion due to time zone crossing. See the SWA3383 flight status page for this flight to view local times or setup timezone preferences in your user account.

Time Position Orientation Groundspeed Altitude Reporting Facility
EDT Latitude Longitude Course Direction KTS MPH feet Rate Location/Type
12:08AM 39.8167 -104.6667 278° West 181 208 6,900  Level Denver TRACON
12:09AM 39.8500 -104.7333 303° West 258 297 9,300 2,280 Climbing Denver TRACON
12:10AM 39.8667 -104.8167 285° West 286 329 11,300 2,580 Climbing Denver TRACON
12:11AM 39.8833 -104.9333 281° West 344 396 14,300 2,880 Climbing Denver TRACON
12:13AM 39.9006 -105.0764 279° West 360 414 18,100 3,180 Climbing Denver Center
12:14AM 39.9107 -105.3795 278° West  Level FlightAware Approximate
12:14AM 39.9194 -105.2378 279° West 368 423 21,900  Level Denver Center
12:15AM 39.9372 -105.3789 279° West 387 445 24,600 2,460 Climbing Denver Center
12:16AM 39.9550 -105.5231 279° West 404 465 27,000 2,220 Climbing Denver Center
12:17AM 39.9731 -105.6728 279° West 417 480 29,200 1,860 Climbing Denver Center
12:18AM 39.9714 -105.8275 269° West 429 494 30,900 1,920 Climbing Denver Center
12:20AM 40.0139 -106.1406 280° West 448 516 35,000 2,100 Climbing Salt Lake Center
12:21AM 40.0717 -106.2753 299° West 447 514 37,200 2,040 Climbing Salt Lake Center
12:22AM 40.1347 -106.4283 298° West 432 497 39,300 1,320 Climbing Salt Lake Center
12:23AM 40.1878 -106.5578 298° West 425 489 40,000 300 Climbing Salt Lake Center
12:24AM 40.2414 -106.6914 298° West 419 482 40,000  Level Salt Lake Center
12:25AM 40.3031 -106.8436 298° West 423 487 40,000  Level Salt Lake Center
12:26AM 40.3556 -106.9714 298° West 419 482 40,000  Level Salt Lake Center
12:27AM 40.4172 -107.1244 298° West 424 488 40,000  Level Salt Lake Center
12:28AM 40.4783 -107.2697 299° West 425 489 40,000  Level Denver Center
12:30AM 40.5847 -107.5419 297° West 430 495 40,000  Level Salt Lake Center
12:31AM 40.6289 -107.6522 298° West 429 494 40,000  Level Salt Lake Center
12:32AM 40.7000 -107.8314 298° West 434 499 40,000  Level Salt Lake Center
12:33AM 40.7533 -107.9661 298° West 434 499 40,000  Level Salt Lake Center
12:34AM 40.8064 -108.0997 298° West 430 495 40,000  Level Salt Lake Center
12:35AM 40.8672 -108.2564 297° West 429 494 40,000  Level Salt Lake Center
12:36AM 40.9186 -108.3919 297° West 431 496 40,000  Level Salt Lake Center
12:37AM 40.9794 -108.5469 298° West 427 491 40,000  Level Salt Lake Center
12:38AM 41.0306 -108.6819 297° West 427 491 40,000  Level Salt Lake Center
12:39AM 41.0822 -108.8164 297° West 427 491 40,000  Level Salt Lake Center
12:40AM 41.1419 -108.9750 297° West 430 495 40,000  Level Salt Lake Center
12:41AM 41.1933 -109.1114 297° West 429 494 40,000  Level Salt Lake Center
12:42AM 41.2439 -109.2492 296° West 429 494 40,000  Level Salt Lake Center
12:43AM 41.3044 -109.4092 297° West 429 494 40,000  Level Salt Lake Center
12:44AM 41.3556 -109.5450 297° West 427 491 40,000  Level Salt Lake Center
12:45AM 41.4058 -109.6814 296° West 428 493 40,000  Level Salt Lake Center
12:46AM 41.4644 -109.8411 296° West 428 493 40,000  Level Salt Lake Center
12:47AM 41.5158 -109.9789 297° West 432 497 40,000  Level Salt Lake Center
12:48AM 41.5653 -110.1181 295° West 433 498 40,000  Level Salt Lake Center
12:49AM 41.6242 -110.2789 296° West 432 497 40,000  Level Salt Lake Center
12:50AM 41.6761 -110.4189 296° West 438 504 40,000  Level Salt Lake Center
12:51AM 41.7342 -110.5803 296° West 433 498 40,000  Level Salt Lake Center
12:52AM 41.7839 -110.7217 295° West 438 504 40,000  Level Salt Lake Center
12:53AM 41.8353 -110.8633 296° West 439 505 40,000  Level Salt Lake Center
12:55AM 41.8881 -111.0133 295° West 443 510 40,000  Level Salt Lake Center
12:56AM 41.9408 -111.1619 296° West 443 510 40,000  Level Salt Lake Center
12:57AM 42.0022 -111.3411 295° West 442 509 40,000  Level Salt Lake Center
12:58AM 42.0539 -111.4878 295° West 438 504 40,000  Level Salt Lake Center
12:59AM 42.1050 -111.6344 295° West 436 502 40,000  Level Salt Lake Center
01:00AM 42.1550 -111.7803 295° West 434 499 40,000  Level Salt Lake Center
01:01AM 42.2056 -111.9264 295° West 433 498 40,000  Level Salt Lake Center
01:02AM 42.2550 -112.0750 294° West 435 501 40,000  Level Salt Lake Center
01:03AM 42.3058 -112.2239 295° West 437 503 40,000  Level Salt Lake Center
01:04AM 42.3553 -112.3717 294° West 436 502 40,000  Level Salt Lake Center
01:05AM 42.4058 -112.5189 295° West 434 499 40,000  Level Salt Lake Center
01:06AM 42.4650 -112.6981 294° West 436 502 40,000  Level Salt Lake Center
01:07AM 42.5147 -112.8467 294° West 436 502 40,000  Level Salt Lake Center
01:08AM 42.5633 -112.9950 294° West 434 499 40,000  Level Salt Lake Center
01:09AM 42.6125 -113.1453 294° West 435 501 40,000  Level Salt Lake Center
01:10AM 42.6611 -113.2933 294° West 433 498 40,000  Level Salt Lake Center
01:11AM 42.7092 -113.4411 294° West 433 498 40,000  Level Salt Lake Center
01:12AM 42.7639 -113.6106 294° West 437 503 40,000 -420 Level Salt Lake Center
01:13AM 42.8097 -113.7558 293° West 437 503 39,200 -1,860 Descending Salt Lake Center
01:14AM 42.8525 -113.9025 292° West 453 521 36,300 -2,880 Descending Salt Lake Center
01:15AM 42.9022 -114.0578 294° West 447 514 33,300 -2,640 Descending Salt Lake Center
01:16AM 42.9567 -114.2256 294° West 438 504 30,900 -2,220 Descending Salt Lake Center
01:17AM 43.0019 -114.3667 294° West 424 488 28,800 -2,220 Descending Salt Lake Center
01:18AM 43.0511 -114.5242 293° West 404 465 26,500 -2,040 Descending Salt Lake Center
01:19AM 43.0917 -114.6553 293° West 391 450 24,700 -2,100 Descending Salt Lake Center
01:20AM 43.1378 -114.8036 293° West 379 436 22,300 -2,460 Descending Salt Lake Center
01:21AM 43.1778 -114.9336 293° West 373 429 19,700 -2,280 Descending Salt Lake Center
01:22AM 43.2156 -115.0589 293° West 369 425 17,700 -2,040 Descending Salt Lake Center
01:23AM 43.2556 -115.1903 293° West 359 413 15,600 -2,100 Descending Salt Lake Center
01:24AM 43.2942 -115.3183 293° West 352 405 13,500 -1,320 Descending Salt Lake Center
01:25AM 43.3275 -115.4303 292° West 330 380 13,000 -540 Descending Salt Lake Center
01:26AM 43.3628 -115.5475 293° West 320 368 12,500 -540 Descending Salt Lake Center
01:27AM 43.3961 -115.6614 292° West 311 358 12,000 -300 Descending Salt Lake Center
01:28AM 43.4258 -115.7678 291° West 311 358 12,000  Level Salt Lake Center
01:29AM 43.4353 -115.8903 276° West 310 357 12,000 -180 Level Salt Lake Center
01:30AM 43.4464 -116.0139 277° West 311 358 11,700 -960 Descending Salt Lake Center
01:31AM 43.4556 -116.1258 276° West 309 356 10,100 -1,260 Descending Salt Lake Center
01:32AM 43.4647 -116.2386 276° West 287 330 9,200 -840 Descending Salt Lake Center
01:33AM 43.4961 -116.3250 297° West 244 281 8,400 -900 Descending Salt Lake Center
01:34AM 43.5228 -116.4019 296° West 233 268 7,400 -1,020 Descending Salt Lake Center
01:35AM 43.5511 -116.4836 296° West 228 262 6,400 -780 Descending Salt Lake Center
01:36AM 43.5894 -116.5081 335° Northwest 192 221 5,900 -720 Descending Salt Lake Center
01:37AM 43.6300 -116.4817 25° Northeast 173 199 5,000 -480 Descending Salt Lake Center
01:38AM 43.6186 -116.3975 101° East 191 220 5,000 -480 Level Salt Lake Center
01:39AM 43.5989 -116.3314 112° Southeast 195 224 4,100 -900 Descending Salt Lake Center
01:40AM 43.5789 -116.2669 113° Southeast 179 206 3,300 -840 Descending Salt Lake Center